Time,TemperatureF,DewpointF,PressureIn,WindDirection,WindDirectionDegrees,WindSpeedMPH,WindSpeedGustMPH,Humidity,HourlyPrecipIn,Conditions,Clouds,dailyrainin,SoftwareType,DateUTC
2013-01-29 00:06:00,50.2,45.0,30.26,WSW,238,0.0,2.0,82,0.00,,,0.00,weatherlink.com 1.10,2013-01-29 05:06:00,
2013-01-29 00:21:00,50.3,45.0,30.26,SSW,213,1.0,3.0,82,0.00,,,0.00,weatherlink.com 1.10,2013-01-29 05:21:00,
2013-01-29 00:36:00,50.2,45.0,30.26,SSW,209,0.0,2.0,82,0.00,,,0.00,weatherlink.com 1.10,2013-01-29 05:36:00,
2013-01-29 00:54:00,50.1,45.0,30.25,SSW,208,0.0,2.0,83,0.00,,,0.00,weatherlink.com 1.10,2013-01-29 05:54:00,
2013-01-29 01:06:00,50.1,46.0,30.25,SSW,196,1.0,3.0,84,0.00,,,0.00,weatherlink.com 1.10,2013-01-29 06:06:00,
2013-01-29 01:21:00,50.4,46.0,30.25,SSW,207,0.0,3.0,84,0.00,,,0.00,weatherlink.com 1.10,2013-01-29 06:21:00,
2013-01-29 01:36:00,50.4,46.0,30.25,SE,136,0.0,3.0,84,0.00,,,0.00,weatherlink.com 1.10,2013-01-29 06:36:00,
2013-01-29 01:51:00,50.2,46.0,30.24,West,259,0.0,1.0,84,0.00,,,0.00,weatherlink.com 1.10,2013-01-29 06:51:00,
2013-01-29 02:06:00,49.7,45.0,30.24,WSW,255,0.0,2.0,84,0.00,,,0.00,weatherlink.com 1.10,2013-01-29 07:06:00,
2013-01-29 02:21:00,49.4,45.0,30.24,SE,146,0.0,5.0,85,0.00,,,0.00,weatherlink.com 1.10,2013-01-29 07:21:00,
2013-01-29 02:36:00,49.1,45.0,30.24,SE,146,0.0,1.0,85,0.00,,,0.00,weatherlink.com 1.10,2013-01-29 07:36:00,
2013-01-29 02:51:00,48.8,45.0,30.24,SE,146,0.0,1.0,86,0.00,,,0.00,weatherlink.com 1.10,2013-01-29 07:51:00,
2013-01-29 03:06:00,48.5,45.0,30.24,SE,146,0.0,0.0,86,0.00,,,0.00,weatherlink.com 1.10,2013-01-29 08:06:00,
2013-01-29 03:21:00,48.4,45.0,30.23,SE,146,0.0,1.0,87,0.00,,,0.00,weatherlink.com 1.10,2013-01-29 08:21:00,
2013-01-29 03:36:00,48.5,45.0,30.22,SE,146,0.0,0.0,87,0.00,,,0.00,weatherlink.com 1.10,2013-01-29 08:36:00,
2013-01-29 03:51:00,48.6,45.0,30.22,SE,146,0.0,1.0,87,0.00,,,0.00,weatherlink.com 1.10,2013-01-29 08:51:00,
2013-01-29 04:06:00,48.7,45.0,30.22,SE,145,0.0,1.0,87,0.00,,,0.00,weatherlink.com 1.10,2013-01-29 09:06:00,
2013-01-29 04:21:00,48.8,45.0,30.22,SE,131,0.0,2.0,87,0.00,,,0.00,weatherlink.com 1.10,2013-01-29 09:21:00,
2013-01-29 04:36:00,48.7,45.0,30.21,SE,132,0.0,3.0,87,0.00,,,0.00,weatherlink.com 1.10,2013-01-29 09:36:00,
2013-01-29 04:51:00,48.7,45.0,30.21,SE,132,0.0,1.0,87,0.00,,,0.00,weatherlink.com 1.10,2013-01-29 09:51:00,
2013-01-29 05:06:00,48.8,45.0,30.21,SSE,159,0.0,2.0,87,0.00,,,0.00,weatherlink.com 1.10,2013-01-29 10:06:00,
2013-01-29 05:22:00,48.7,45.0,30.22,SW,234,0.0,2.0,87,0.00,,,0.00,weatherlink.com 1.10,2013-01-29 10:22:00,
2013-01-29 05:36:00,48.7,45.0,30.22,SSW,210,0.0,2.0,87,0.00,,,0.00,weatherlink.com 1.10,2013-01-29 10:36:00,
2013-01-29 05:52:00,48.7,45.0,30.22,SSW,210,1.0,3.0,87,0.00,,,0.00,weatherlink.com 1.10,2013-01-29 10:52:00,
2013-01-29 06:06:00,48.8,45.0,30.21,SSW,192,0.0,2.0,87,0.00,,,0.00,weatherlink.com 1.10,2013-01-29 11:06:00,
2013-01-29 06:22:00,48.8,45.0,30.22,SW,219,0.0,1.0,87,0.00,,,0.00,weatherlink.com 1.10,2013-01-29 11:22:00,
2013-01-29 06:36:00,48.8,45.0,30.23,SE,142,0.0,3.0,87,0.00,,,0.00,weatherlink.com 1.10,2013-01-29 11:36:00,
2013-01-29 06:51:00,48.7,45.0,30.23,SE,128,0.0,4.0,86,0.00,,,0.00,weatherlink.com 1.10,2013-01-29 11:51:00,
2013-01-29 07:06:00,48.7,45.0,30.23,SE,128,0.0,1.0,86,0.00,,,0.00,weatherlink.com 1.10,2013-01-29 12:06:00,
2013-01-29 07:21:00,48.4,44.0,30.23,SE,128,0.0,1.0,86,0.00,,,0.00,weatherlink.com 1.10,2013-01-29 12:21:00,
2013-01-29 07:36:00,48.3,45.0,30.23,SE,131,0.0,3.0,87,0.00,,,0.00,weatherlink.com 1.10,2013-01-29 12:36:00,
2013-01-29 07:51:00,48.1,44.0,30.24,SE,132,0.0,1.0,86,0.00,,,0.00,weatherlink.com 1.10,2013-01-29 12:51:00,
2013-01-29 08:07:00,48.0,44.0,30.24,SE,132,0.0,1.0,87,0.00,,,0.00,weatherlink.com 1.10,2013-01-29 13:07:00,
2013-01-29 08:22:00,48.2,45.0,30.24,SE,132,0.0,2.0,87,0.00,,,0.00,weatherlink.com 1.10,2013-01-29 13:22:00,
2013-01-29 08:36:00,48.7,45.0,30.24,SE,132,0.0,1.0,87,0.00,,,0.00,weatherlink.com 1.10,2013-01-29 13:36:00,
2013-01-29 08:51:00,49.4,46.0,30.24,SSE,150,0.0,3.0,87,0.00,,,0.00,weatherlink.com 1.10,2013-01-29 13:51:00,
2013-01-29 09:06:00,50.5,47.0,30.24,SSW,197,1.0,4.0,86,0.00,,,0.00,weatherlink.com 1.10,2013-01-29 14:06:00,
2013-01-29 09:22:00,51.6,47.0,30.24,SSE,153,1.0,3.0,84,0.00,,,0.00,weatherlink.com 1.10,2013-01-29 14:22:00,
2013-01-29 09:37:00,52.7,48.0,30.24,SE,132,0.0,2.0,83,0.00,,,0.00,weatherlink.com 1.10,2013-01-29 14:37:00,
2013-01-29 09:52:00,54.0,49.0,30.23,SSW,203,0.0,3.0,82,0.00,,,0.00,weatherlink.com 1.10,2013-01-29 14:52:00,
2013-01-29 10:07:00,55.3,49.0,30.23,WNW,286,1.0,4.0,80,0.00,,,0.00,weatherlink.com 1.10,2013-01-29 15:07:00,
2013-01-29 10:22:00,56.7,50.0,30.24,SE,124,2.0,5.0,77,0.00,,,0.00,weatherlink.com 1.10,2013-01-29 15:22:00,
2013-01-29 10:37:00,58.4,51.0,30.24,South,180,1.0,3.0,75,0.00,,,0.00,weatherlink.com 1.10,2013-01-29 15:37:00,
2013-01-29 10:52:00,60.1,51.0,30.24,West,275,1.0,4.0,73,0.00,,,0.00,weatherlink.com 1.10,2013-01-29 15:52:00,
2013-01-29 11:07:00,61.4,52.0,30.23,South,169,0.0,3.0,72,0.00,,,0.00,weatherlink.com 1.10,2013-01-29 16:07:00,
2013-01-29 11:22:00,62.8,53.0,30.23,South,180,2.0,5.0,70,0.00,,,0.00,weatherlink.com 1.10,2013-01-29 16:22:00,
2013-01-29 11:37:00,64.2,53.0,30.22,SSW,201,1.0,4.0,68,0.00,,,0.00,weatherlink.com 1.10,2013-01-29 16:37:00,
2013-01-29 11:52:00,65.6,53.0,30.21,WSW,248,3.0,3.0,65,0.00,,,0.00,weatherlink.com 1.10,2013-01-29 16:52:00,
2013-01-29 12:07:00,66.4,54.0,30.20,SSW,193,3.0,7.0,65,0.00,,,0.00,weatherlink.com 1.10,2013-01-29 17:07:00,
2013-01-29 12:22:00,66.7,54.0,30.18,North,360,1.0,3.0,63,0.00,,,0.00,weatherlink.com 1.10,2013-01-29 17:22:00,
2013-01-29 12:37:00,67.1,54.0,30.18,SE,129,6.0,7.0,64,0.00,,,0.00,weatherlink.com 1.10,2013-01-29 17:37:00,
2013-01-29 12:52:00,67.7,55.0,30.17,SSE,159,1.0,5.0,63,0.00,,,0.00,weatherlink.com 1.10,2013-01-29 17:52:00,
2013-01-29 13:07:00,68.8,56.0,30.16,SSE,150,3.0,4.0,63,0.00,,,0.00,weatherlink.com 1.10,2013-01-29 18:07:00,
2013-01-29 13:23:00,70.2,56.0,30.15,SSE,153,1.0,4.0,61,0.00,,,0.00,weatherlink.com 1.10,2013-01-29 18:23:00,
2013-01-29 13:38:00,70.6,56.0,30.14,SE,127,0.0,7.0,61,0.00,,,0.00,weatherlink.com 1.10,2013-01-29 18:38:00,
2013-01-29 13:54:00,70.7,56.0,30.14,South,188,2.0,4.0,60,0.00,,,0.00,weatherlink.com 1.10,2013-01-29 18:54:00,
2013-01-29 14:09:00,70.9,56.0,30.14,WSW,249,1.0,4.0,60,0.00,,,0.00,weatherlink.com 1.10,2013-01-29 19:09:00,
2013-01-29 14:23:00,70.9,57.0,30.13,South,169,0.0,4.0,61,0.00,,,0.00,weatherlink.com 1.10,2013-01-29 19:23:00,
2013-01-29 14:38:00,71.2,57.0,30.12,SSE,159,1.0,3.0,62,0.00,,,0.00,weatherlink.com 1.10,2013-01-29 19:38:00,
2013-01-29 14:53:00,72.2,57.0,30.12,SE,140,0.0,4.0,59,0.00,,,0.00,weatherlink.com 1.10,2013-01-29 19:53:00,
2013-01-29 15:08:00,72.5,57.0,30.12,SSE,161,2.0,5.0,58,0.00,,,0.00,weatherlink.com 1.10,2013-01-29 20:08:00,
2013-01-29 15:23:00,72.4,56.0,30.12,SW,215,1.0,5.0,57,0.00,,,0.00,weatherlink.com 1.10,2013-01-29 20:23:00,
2013-01-29 15:38:00,72.6,56.0,30.12,South,177,2.0,5.0,57,0.00,,,0.00,weatherlink.com 1.10,2013-01-29 20:38:00,
2013-01-29 15:53:00,72.6,56.0,30.12,SSE,165,1.0,6.0,57,0.00,,,0.00,weatherlink.com 1.10,2013-01-29 20:53:00,
2013-01-29 16:08:00,72.7,56.0,30.12,ESE,122,0.0,3.0,57,0.00,,,0.00,weatherlink.com 1.10,2013-01-29 21:08:00,
2013-01-29 16:23:00,72.1,56.0,30.12,SSW,200,1.0,5.0,58,0.00,,,0.00,weatherlink.com 1.10,2013-01-29 21:23:00,
2013-01-29 16:38:00,71.3,56.0,30.12,South,173,0.0,4.0,59,0.00,,,0.00,weatherlink.com 1.10,2013-01-29 21:38:00,
2013-01-29 16:53:00,70.5,56.0,30.11,SSE,167,0.0,6.0,60,0.00,,,0.00,weatherlink.com 1.10,2013-01-29 21:53:00,
2013-01-29 17:08:00,69.9,56.0,30.11,ESE,122,0.0,6.0,61,0.00,,,0.00,weatherlink.com 1.10,2013-01-29 22:08:00,
2013-01-29 17:23:00,69.1,56.0,30.12,SSE,165,1.0,4.0,63,0.00,,,0.00,weatherlink.com 1.10,2013-01-29 22:23:00,
2013-01-29 17:38:00,68.2,56.0,30.11,SSE,167,0.0,1.0,65,0.00,,,0.00,weatherlink.com 1.10,2013-01-29 22:38:00,
2013-01-29 17:53:00,67.1,55.0,30.11,SSE,167,0.0,1.0,66,0.00,,,0.00,weatherlink.com 1.10,2013-01-29 22:53:00,
2013-01-29 18:08:00,66.3,55.0,30.11,SSE,168,0.0,1.0,68,0.00,,,0.00,weatherlink.com 1.10,2013-01-29 23:08:00,
2013-01-29 18:23:00,65.5,55.0,30.11,SSE,167,0.0,1.0,69,0.00,,,0.00,weatherlink.com 1.10,2013-01-29 23:23:00,
2013-01-29 18:38:00,64.6,55.0,30.11,SSE,167,0.0,0.0,70,0.00,,,0.00,weatherlink.com 1.10,2013-01-29 23:38:00,
2013-01-29 18:53:00,63.8,54.0,30.11,SSE,167,0.0,0.0,71,0.00,,,0.00,weatherlink.com 1.10,2013-01-29 23:53:00,
2013-01-29 19:08:00,63.0,54.0,30.11,SSE,168,0.0,0.0,73,0.00,,,0.00,weatherlink.com 1.10,2013-01-30 00:08:00,
2013-01-29 19:23:00,62.2,54.0,30.11,SSE,167,0.0,0.0,74,0.00,,,0.00,weatherlink.com 1.10,2013-01-30 00:23:00,
2013-01-29 19:38:00,61.4,53.0,30.10,SSE,167,0.0,0.0,75,0.00,,,0.00,weatherlink.com 1.10,2013-01-30 00:38:00,
2013-01-29 19:53:00,61.0,53.0,30.10,SSE,167,0.0,0.0,76,0.00,,,0.00,weatherlink.com 1.10,2013-01-30 00:53:00,
2013-01-29 20:08:00,60.8,53.0,30.10,SSE,167,0.0,1.0,76,0.00,,,0.00,weatherlink.com 1.10,2013-01-30 01:08:00,
2013-01-29 20:23:00,61.0,53.0,30.10,SSE,168,1.0,2.0,76,0.00,,,0.00,weatherlink.com 1.10,2013-01-30 01:23:00,
2013-01-29 20:38:00,61.4,54.0,30.10,SSE,167,0.0,2.0,76,0.00,,,0.00,weatherlink.com 1.10,2013-01-30 01:38:00,
2013-01-29 20:53:00,61.9,54.0,30.11,South,178,1.0,2.0,76,0.00,,,0.00,weatherlink.com 1.10,2013-01-30 01:53:00,
2013-01-29 21:08:00,62.3,55.0,30.10,SSE,162,4.0,4.0,76,0.00,,,0.00,weatherlink.com 1.10,2013-01-30 02:08:00,
2013-01-29 21:23:00,62.4,55.0,30.10,South,178,0.0,3.0,76,0.00,,,0.00,weatherlink.com 1.10,2013-01-30 02:23:00,
2013-01-29 21:38:00,62.3,55.0,30.10,South,177,1.0,1.0,76,0.00,,,0.00,weatherlink.com 1.10,2013-01-30 02:38:00,
2013-01-29 21:53:00,62.1,55.0,30.10,South,180,0.0,5.0,77,0.00,,,0.00,weatherlink.com 1.10,2013-01-30 02:53:00,
2013-01-29 22:08:00,61.8,55.0,30.10,SE,141,0.0,1.0,77,0.00,,,0.00,weatherlink.com 1.10,2013-01-30 03:08:00,
2013-01-29 22:23:00,61.4,55.0,30.11,SE,142,0.0,1.0,78,0.00,,,0.00,weatherlink.com 1.10,2013-01-30 03:23:00,
2013-01-29 22:38:00,61.1,55.0,30.11,SE,142,0.0,2.0,79,0.00,,,0.00,weatherlink.com 1.10,2013-01-30 03:38:00,
2013-01-29 22:53:00,60.7,54.0,30.11,SE,142,0.0,1.0,79,0.00,,,0.00,weatherlink.com 1.10,2013-01-30 03:53:00,
2013-01-29 23:09:00,60.2,54.0,30.12,SE,141,0.0,1.0,79,0.00,,,0.00,weatherlink.com 1.10,2013-01-30 04:09:00,
2013-01-29 23:23:00,60.0,54.0,30.10,SE,141,0.0,2.0,81,0.00,,,0.00,weatherlink.com 1.10,2013-01-30 04:23:00,
2013-01-29 23:38:00,60.0,55.0,30.09,South,172,0.0,3.0,82,0.00,,,0.00,weatherlink.com 1.10,2013-01-30 04:38:00,
2013-01-29 23:53:00,60.2,55.0,30.09,SE,129,0.0,3.0,82,0.00,,,0.00,weatherlink.com 1.10,2013-01-30 04:53:00,